createdAt,value
2023-03-28T00:00:01.672Z,17.17
2023-03-28T00:02:29.212Z,20.13
2023-03-28T00:04:56.885Z,18.77
2023-03-28T00:07:27.299Z,20.10
2023-03-28T00:09:56.123Z,21.07
2023-03-28T00:12:23.607Z,19.23
2023-03-28T00:14:51.098Z,17.00
2023-03-28T00:17:18.601Z,16.70
2023-03-28T00:19:46.983Z,14.50
2023-03-28T00:22:14.538Z,14.63
2023-03-28T00:24:44.476Z,8.87
2023-03-28T00:27:11.957Z,7.73
2023-03-28T00:29:39.458Z,6.10
2023-03-28T00:32:06.995Z,6.70
2023-03-28T00:34:34.489Z,6.73
2023-03-28T00:37:02.475Z,5.43
2023-03-28T00:39:31.365Z,6.30
2023-03-28T00:42:03.309Z,6.67
2023-03-28T00:44:46.398Z,6.63
2023-03-28T00:47:20.654Z,9.97
2023-03-28T00:49:52.930Z,8.50
2023-03-28T00:52:24.057Z,9.87
2023-03-28T00:54:53.679Z,8.97
2023-03-28T00:57:23.559Z,9.80
2023-03-28T00:59:51.642Z,8.20
2023-03-28T01:02:19.818Z,8.33
2023-03-28T01:04:54.230Z,16.30
2023-03-28T01:07:21.934Z,10.87
2023-03-28T01:09:50.431Z,10.30
2023-03-28T01:12:19.216Z,9.93
2023-03-28T01:14:48.741Z,8.33
2023-03-28T01:17:16.928Z,13.20
2023-03-28T01:19:58.990Z,9.67
2023-03-28T01:23:06.766Z,8.00
2023-03-28T01:26:32.145Z,8.40
2023-03-28T01:29:21.896Z,7.10
2023-03-28T01:32:27.710Z,7.20
2023-03-28T01:35:19.813Z,6.93
2023-03-28T01:37:58.679Z,7.73
2023-03-28T01:40:35.572Z,8.03
2023-03-28T01:43:15.160Z,11.13
2023-03-28T01:45:52.204Z,13.30
2023-03-28T01:48:30.860Z,9.17
2023-03-28T01:51:09.281Z,9.00
2023-03-28T01:53:45.218Z,11.90
2023-03-28T01:56:22.208Z,11.77
2023-03-28T01:58:55.793Z,11.17
2023-03-28T02:01:30.172Z,11.27
2023-03-28T02:04:03.734Z,10.13
2023-03-28T02:06:34.531Z,9.73
2023-03-28T02:09:04.951Z,11.77
2023-03-28T02:11:34.630Z,7.83
2023-03-28T02:14:07.888Z,10.10
2023-03-28T02:16:41.307Z,8.37
2023-03-28T02:19:10.366Z,8.13
2023-03-28T02:21:43.381Z,9.30
2023-03-28T02:24:13.536Z,30.13
2023-03-28T02:26:41.494Z,7.50
2023-03-28T02:29:10.203Z,7.50
2023-03-28T02:31:38.583Z,9.40
2023-03-28T02:34:06.282Z,7.90
2023-03-28T02:36:46.267Z,7.30
2023-03-28T02:39:28.990Z,7.87
2023-03-28T02:42:25.449Z,8.20
2023-03-28T02:45:11.681Z,7.50
2023-03-28T02:47:44.108Z,18.90
2023-03-28T02:50:25.465Z,9.00
2023-03-28T02:53:00.020Z,8.97
2023-03-28T02:55:34.941Z,9.70
2023-03-28T02:58:10.251Z,8.20
2023-03-28T03:00:39.304Z,11.83
2023-03-28T03:03:10.392Z,9.37
2023-03-28T03:05:38.596Z,10.27
2023-03-28T03:08:08.373Z,9.40
2023-03-28T03:10:37.248Z,7.47
2023-03-28T03:13:04.784Z,8.17
2023-03-28T03:15:32.367Z,8.13
2023-03-28T03:18:00.166Z,12.60
2023-03-28T03:20:28.055Z,6.87
2023-03-28T03:22:56.554Z,8.53
2023-03-28T03:25:24.059Z,9.40
2023-03-28T03:27:52.861Z,10.87
2023-03-28T03:30:20.377Z,10.50
2023-03-28T03:32:47.990Z,10.50
2023-03-28T03:35:15.643Z,11.47
2023-03-28T03:37:43.122Z,12.47
2023-03-28T03:40:12.821Z,16.00
2023-03-28T03:42:41.036Z,18.50
2023-03-28T03:45:11.161Z,15.03
2023-03-28T03:47:38.776Z,22.80
2023-03-28T03:50:08.088Z,18.00
2023-03-28T03:52:35.628Z,18.77
2023-03-28T03:55:03.114Z,18.83
2023-03-28T03:57:30.746Z,16.83
2023-03-28T03:59:58.418Z,15.47
2023-03-28T04:02:27.639Z,18.87
2023-03-28T04:04:57.093Z,14.10
2023-03-28T04:07:30.918Z,15.63
2023-03-28T04:09:58.435Z,16.47
2023-03-28T04:12:25.952Z,17.43
2023-03-28T04:14:53.436Z,10.20
2023-03-28T04:17:21.415Z,11.23
2023-03-28T04:19:50.579Z,11.43
2023-03-28T04:22:19.096Z,15.53
2023-03-28T04:24:49.745Z,23.23
2023-03-28T04:27:17.790Z,12.80
2023-03-28T04:29:45.282Z,13.80
2023-03-28T04:32:12.901Z,15.90
2023-03-28T04:34:40.458Z,19.13
2023-03-28T04:37:09.315Z,13.97
2023-03-28T04:39:36.817Z,13.97
2023-03-28T04:42:05.808Z,15.83
2023-03-28T04:44:33.444Z,15.90
2023-03-28T04:47:00.977Z,17.60
2023-03-28T04:49:28.483Z,20.67
2023-03-28T04:51:56.010Z,16.60
2023-03-28T04:54:24.832Z,15.40
2023-03-28T04:56:52.308Z,14.83
2023-03-28T04:59:20.124Z,14.73
2023-03-28T05:01:49.963Z,14.10
2023-03-28T05:04:18.321Z,14.73
2023-03-28T05:06:46.775Z,12.13
2023-03-28T05:09:14.677Z,14.43
2023-03-28T05:11:43.800Z,17.17
2023-03-28T05:14:11.493Z,13.97
2023-03-28T05:16:39.026Z,14.07
2023-03-28T05:19:06.773Z,12.93
2023-03-28T05:21:34.237Z,15.60
2023-03-28T05:24:01.713Z,9.97
2023-03-28T05:26:30.572Z,23.90
2023-03-28T05:28:59.404Z,9.50
2023-03-28T05:31:30.235Z,9.37
2023-03-28T05:33:58.000Z,10.70
2023-03-28T05:36:25.574Z,14.93
2023-03-28T05:38:53.093Z,10.87
2023-03-28T05:41:20.599Z,11.37
2023-03-28T05:43:48.082Z,7.10
2023-03-28T05:46:16.986Z,7.30
2023-03-28T05:48:49.317Z,7.10
2023-03-28T05:51:17.396Z,7.83
2023-03-28T05:53:44.976Z,7.40
2023-03-28T05:56:12.452Z,7.77
2023-03-28T05:58:40.172Z,9.00
2023-03-28T06:01:09.461Z,8.07
2023-03-28T06:03:40.031Z,8.00
2023-03-28T06:06:09.361Z,7.87
2023-03-28T06:08:37.200Z,8.97
2023-03-28T06:11:05.391Z,8.73
2023-03-28T06:13:32.864Z,8.23
2023-03-28T06:16:00.445Z,7.57
2023-03-28T06:18:27.898Z,7.57
2023-03-28T06:20:56.838Z,7.97
2023-03-28T06:23:24.611Z,6.87
2023-03-28T06:25:52.110Z,7.90
2023-03-28T06:28:19.661Z,7.77
2023-03-28T06:30:49.230Z,6.23
2023-03-28T06:33:16.830Z,7.43
2023-03-28T06:35:44.501Z,7.53
2023-03-28T06:38:13.361Z,7.60
2023-03-28T06:40:41.154Z,6.90
2023-03-28T06:43:08.614Z,7.17
2023-03-28T06:45:36.093Z,7.10
2023-03-28T06:48:03.656Z,6.57
2023-03-28T06:50:31.234Z,6.10
2023-03-28T06:52:58.853Z,4.93
2023-03-28T06:55:27.733Z,6.37
2023-03-28T06:57:55.293Z,6.73
2023-03-28T07:00:23.706Z,5.23
2023-03-28T07:02:51.253Z,7.00
2023-03-28T07:05:18.991Z,7.10
2023-03-28T07:07:46.577Z,4.80
2023-03-28T07:10:14.038Z,4.47
2023-03-28T07:12:42.836Z,6.23
2023-03-28T07:15:11.085Z,5.67
2023-03-28T07:17:38.595Z,6.20
2023-03-28T07:20:07.121Z,4.07
2023-03-28T07:22:34.577Z,4.90
2023-03-28T07:25:02.068Z,6.70
2023-03-28T07:27:29.622Z,4.53
2023-03-28T07:29:58.413Z,6.90
2023-03-28T07:32:30.934Z,6.23
2023-03-28T07:35:03.457Z,5.03
2023-03-28T07:37:30.918Z,7.43
2023-03-28T07:39:58.370Z,8.53
2023-03-28T07:42:27.391Z,4.97
2023-03-28T07:44:55.352Z,6.70
2023-03-28T07:47:24.159Z,8.27
2023-03-28T07:49:51.594Z,4.83
2023-03-28T07:52:20.578Z,7.00
2023-03-28T07:54:48.044Z,6.30
2023-03-28T07:57:15.722Z,8.30
2023-03-28T07:59:43.219Z,7.73
2023-03-28T08:02:12.538Z,6.10
2023-03-28T08:04:41.352Z,7.43
2023-03-28T08:07:09.627Z,5.90
2023-03-28T08:09:37.340Z,7.33
2023-03-28T08:12:05.107Z,6.23
2023-03-28T08:14:32.602Z,7.57
2023-03-28T08:17:00.070Z,6.70
2023-03-28T08:19:27.618Z,5.43
2023-03-28T08:21:58.749Z,6.60
2023-03-28T08:24:35.154Z,7.73
2023-03-28T08:27:03.713Z,6.33
2023-03-28T08:29:31.328Z,5.73
2023-03-28T08:31:59.289Z,7.27
2023-03-28T08:34:27.032Z,6.57
2023-03-28T08:36:55.939Z,6.50
2023-03-28T08:39:24.277Z,7.53
2023-03-28T08:42:10.477Z,3.60
2023-03-28T08:44:51.896Z,4.93
2023-03-28T08:47:23.184Z,2.00
2023-03-28T08:49:55.486Z,5.73
2023-03-28T08:52:25.046Z,3.10
2023-03-28T08:54:57.787Z,3.93
2023-03-28T08:57:29.768Z,12.20
2023-03-28T09:00:08.874Z,29.80
2023-03-28T09:02:36.568Z,7.63
2023-03-28T09:05:21.925Z,8.40
2023-03-28T09:08:00.291Z,4.60
2023-03-28T09:10:36.138Z,2.97
2023-03-28T09:13:17.660Z,2.73
2023-03-28T09:16:10.103Z,3.97
2023-03-28T09:18:54.721Z,2.53
2023-03-28T09:21:32.237Z,6.17
2023-03-28T09:24:18.216Z,2.93
2023-03-28T09:26:49.047Z,4.80
2023-03-28T09:29:19.665Z,2.63
2023-03-28T09:31:50.579Z,2.23
2023-03-28T09:34:22.916Z,18.00
2023-03-28T09:36:55.422Z,4.37
2023-03-28T09:39:33.283Z,3.40
2023-03-28T09:42:05.418Z,3.40
2023-03-28T09:44:53.344Z,2.73
2023-03-28T09:47:22.477Z,9.50
2023-03-28T09:49:56.449Z,2.40
2023-03-28T09:52:27.040Z,3.63
2023-03-28T09:54:55.918Z,6.17
2023-03-28T09:57:23.525Z,18.50
2023-03-28T09:59:51.133Z,5.13
2023-03-28T10:02:28.176Z,3.00
2023-03-28T10:04:56.108Z,3.63
2023-03-28T10:07:42.364Z,5.53
2023-03-28T10:10:19.931Z,22.63
2023-03-28T10:12:49.666Z,9.23
2023-03-28T10:15:33.012Z,17.50
2023-03-28T10:18:03.267Z,2.97
2023-03-28T10:20:35.695Z,14.77
2023-03-28T10:23:04.661Z,4.40
2023-03-28T10:25:40.344Z,9.83
2023-03-28T10:28:14.378Z,8.97
2023-03-28T10:30:42.706Z,24.20
2023-03-28T10:33:28.697Z,2.33
2023-03-28T10:35:59.249Z,2.30
2023-03-28T10:38:31.859Z,9.17
2023-03-28T10:41:04.475Z,11.27
2023-03-28T10:43:35.457Z,25.87
2023-03-28T10:46:05.173Z,31.67
2023-03-28T10:48:36.269Z,3.03
2023-03-28T10:51:08.768Z,16.93
2023-03-28T10:53:54.008Z,3.23
2023-03-28T10:56:29.262Z,3.80
2023-03-28T10:59:12.063Z,2.90
2023-03-28T11:01:51.582Z,2.73
2023-03-28T11:04:34.156Z,3.03
2023-03-28T11:07:08.804Z,3.00
2023-03-28T11:09:42.734Z,2.33
2023-03-28T11:12:29.791Z,2.73
2023-03-28T11:15:07.559Z,10.67
2023-03-28T11:17:47.851Z,2.60
2023-03-28T11:20:32.915Z,4.03
2023-03-28T11:23:28.571Z,2.50
2023-03-28T11:26:02.887Z,3.00
2023-03-28T11:28:46.517Z,2.90
2023-03-28T11:31:19.562Z,2.37
2023-03-28T11:33:54.651Z,2.03
2023-03-28T11:36:29.463Z,2.30
2023-03-28T11:39:02.771Z,2.37
2023-03-28T11:41:34.375Z,2.73
2023-03-28T11:44:10.446Z,2.27
2023-03-28T11:46:42.672Z,1.90
2023-03-28T11:49:19.141Z,3.57
2023-03-28T11:51:52.175Z,2.77
2023-03-28T11:54:23.126Z,1.80
2023-03-28T11:56:56.028Z,1.70
2023-03-28T11:59:31.940Z,2.27
2023-03-28T12:02:06.407Z,2.37
2023-03-28T12:04:40.091Z,5.00
2023-03-28T12:07:15.333Z,7.57
2023-03-28T12:09:56.447Z,10.67
2023-03-28T12:12:29.951Z,9.73
2023-03-28T12:15:05.176Z,8.83
2023-03-28T12:17:37.447Z,10.37
2023-03-28T12:20:11.685Z,4.53
2023-03-28T12:22:43.844Z,5.37
2023-03-28T12:25:15.565Z,8.60
2023-03-28T12:27:54.704Z,7.20
2023-03-28T12:30:30.951Z,5.70
2023-03-28T12:33:07.082Z,1.80
2023-03-28T12:35:42.795Z,9.37
2023-03-28T12:38:19.282Z,10.33
2023-03-28T12:41:00.120Z,16.95
2023-03-28T12:43:34.393Z,11.63
2023-03-28T12:46:05.832Z,8.80
2023-03-28T12:48:38.045Z,11.35
2023-03-28T12:51:10.498Z,15.25
2023-03-28T12:53:46.157Z,9.88
2023-03-28T12:56:16.557Z,9.85
2023-03-28T12:58:46.159Z,9.93
2023-03-28T13:01:43.931Z,12.57
2023-03-28T13:04:28.914Z,8.93
2023-03-28T13:07:04.158Z,10.13
2023-03-28T13:09:44.906Z,6.13
2023-03-28T13:12:54.833Z,9.53
2023-03-28T13:15:30.919Z,3.87
2023-03-28T13:18:32.270Z,10.10
2023-03-28T13:21:02.771Z,3.47
2023-03-28T13:23:34.299Z,5.50
2023-03-28T13:26:03.483Z,6.85
2023-03-28T13:28:34.194Z,12.50
2023-03-28T13:31:11.184Z,10.18
2023-03-28T13:33:46.825Z,13.70
2023-03-28T13:36:26.439Z,9.00
2023-03-28T13:39:07.147Z,8.27
2023-03-28T13:41:55.030Z,6.03
2023-03-28T13:44:25.553Z,2.70
2023-03-28T13:46:54.244Z,4.68
2023-03-28T13:49:32.440Z,2.22
2023-03-28T13:52:04.642Z,2.35
2023-03-28T13:54:32.667Z,1.85
2023-03-28T13:57:04.166Z,2.17
2023-03-28T13:59:37.000Z,1.70
2023-03-28T14:02:15.889Z,1.92
2023-03-28T14:04:51.760Z,1.92
2023-03-28T14:07:24.908Z,1.63
2023-03-28T14:09:53.553Z,1.73
2023-03-28T14:12:23.298Z,3.00
2023-03-28T14:14:53.769Z,1.88
2023-03-28T14:17:24.152Z,1.70
2023-03-28T14:19:56.693Z,2.28
2023-03-28T14:22:27.525Z,1.90
2023-03-28T14:24:58.781Z,1.98
2023-03-28T14:27:32.188Z,2.03
2023-03-28T14:30:00.882Z,1.77
2023-03-28T14:32:32.009Z,1.87
2023-03-28T14:35:18.871Z,1.97
2023-03-28T14:37:51.247Z,1.90
2023-03-28T14:40:21.036Z,2.00
2023-03-28T14:43:00.491Z,1.90
2023-03-28T14:45:29.219Z,1.87
2023-03-28T14:47:58.110Z,7.50
2023-03-28T14:50:33.456Z,2.00
2023-03-28T14:53:03.823Z,2.17
2023-03-28T14:55:33.251Z,1.80
2023-03-28T14:58:02.333Z,2.50
2023-03-28T15:00:37.372Z,1.58
2023-03-28T15:03:08.500Z,2.00
2023-03-28T15:05:38.652Z,1.98
2023-03-28T15:08:07.054Z,1.70
2023-03-28T15:10:34.677Z,2.00
2023-03-28T15:13:06.625Z,1.90
2023-03-28T15:15:36.816Z,1.73
2023-03-28T15:18:09.466Z,1.77
2023-03-28T15:20:40.128Z,1.80
2023-03-28T15:23:14.515Z,1.80
2023-03-28T15:25:44.591Z,1.90
2023-03-28T15:28:17.468Z,2.00
2023-03-28T15:30:47.357Z,1.65
2023-03-28T15:33:18.702Z,2.28
2023-03-28T15:35:47.657Z,1.90
2023-03-28T15:38:21.947Z,1.97
2023-03-28T15:40:51.237Z,2.17
2023-03-28T15:43:38.865Z,2.27
2023-03-28T15:46:12.673Z,2.47
2023-03-28T15:48:42.517Z,4.13
2023-03-28T15:51:15.960Z,2.67
2023-03-28T15:53:45.974Z,2.73
2023-03-28T15:56:21.687Z,2.20
2023-03-28T15:58:49.308Z,2.70
2023-03-28T16:01:28.655Z,1.80
2023-03-28T16:04:24.119Z,1.90
2023-03-28T16:06:56.873Z,1.80
2023-03-28T16:09:26.026Z,1.80
2023-03-28T16:11:59.516Z,1.80
2023-03-28T16:14:27.573Z,2.27
2023-03-28T16:16:56.267Z,1.67
2023-03-28T16:19:26.502Z,1.90
2023-03-28T16:21:55.574Z,1.90
2023-03-28T16:24:23.777Z,2.00
2023-03-28T16:26:51.224Z,1.90
2023-03-28T16:29:18.670Z,1.70
2023-03-28T16:31:46.407Z,2.10
2023-03-28T16:34:13.918Z,1.80
2023-03-28T16:36:41.394Z,1.90
2023-03-28T16:39:11.948Z,1.97
2023-03-28T16:41:39.429Z,1.57
2023-03-28T16:44:06.909Z,1.80
2023-03-28T16:46:34.415Z,2.17
2023-03-28T16:49:01.875Z,2.20
2023-03-28T16:51:29.327Z,2.33
2023-03-28T16:53:56.775Z,2.23
2023-03-28T16:56:27.462Z,1.90
2023-03-28T16:58:55.245Z,1.90
2023-03-28T17:01:23.171Z,1.97
2023-03-28T17:03:52.658Z,2.10
2023-03-28T17:06:20.282Z,1.97
2023-03-28T17:08:48.047Z,1.70
2023-03-28T17:11:16.254Z,1.63
2023-03-28T17:13:47.390Z,2.10
2023-03-28T17:16:14.896Z,2.10
2023-03-28T17:18:42.359Z,1.83
2023-03-28T17:21:12.313Z,1.67
2023-03-28T17:23:42.070Z,1.80
2023-03-28T17:26:12.120Z,1.83
2023-03-28T17:28:42.024Z,1.77
2023-03-28T17:31:13.247Z,2.00
2023-03-28T17:33:41.045Z,1.83
2023-03-28T17:36:21.031Z,1.80
2023-03-28T17:38:50.207Z,2.03
2023-03-28T17:41:17.719Z,2.03
2023-03-28T17:43:45.780Z,2.60
2023-03-28T17:46:14.652Z,2.90
2023-03-28T17:48:42.854Z,5.00
2023-03-28T17:51:11.663Z,3.57
2023-03-28T17:53:40.992Z,2.37
2023-03-28T17:56:09.677Z,3.77
2023-03-28T17:58:37.540Z,3.90
2023-03-28T18:01:09.339Z,5.90
2023-03-28T18:03:39.001Z,7.20
2023-03-28T18:06:07.761Z,2.93
2023-03-28T18:08:35.536Z,3.77
2023-03-28T18:11:05.357Z,3.10
2023-03-28T18:13:33.719Z,3.13
2023-03-28T18:16:01.705Z,3.37
2023-03-28T18:18:29.348Z,3.60
2023-03-28T18:20:58.298Z,4.83
2023-03-28T18:23:26.799Z,4.23
2023-03-28T18:25:54.677Z,4.20
2023-03-28T18:28:23.345Z,2.80
2023-03-28T18:30:51.459Z,3.30
2023-03-28T18:33:19.258Z,4.87
2023-03-28T18:35:47.115Z,7.93
2023-03-28T18:38:17.685Z,4.57
2023-03-28T18:40:45.362Z,3.70
2023-03-28T18:43:12.851Z,3.90
2023-03-28T18:45:41.816Z,3.80
2023-03-28T18:48:09.768Z,4.10
2023-03-28T18:50:39.150Z,3.93
2023-03-28T18:53:07.037Z,4.43
2023-03-28T18:55:35.895Z,3.83
2023-03-28T18:58:04.646Z,4.20
2023-03-28T19:00:32.184Z,5.00
2023-03-28T19:02:59.851Z,4.13
2023-03-28T19:05:27.444Z,4.37
2023-03-28T19:07:55.517Z,3.47
2023-03-28T19:10:23.022Z,3.60
2023-03-28T19:12:53.751Z,4.00
2023-03-28T19:15:21.958Z,3.83
2023-03-28T19:17:49.475Z,3.70
2023-03-28T19:20:17.329Z,4.40
2023-03-28T19:22:45.499Z,5.10
2023-03-28T19:25:14.079Z,4.50
2023-03-28T19:27:43.674Z,5.43
2023-03-28T19:30:12.866Z,4.77
2023-03-28T19:32:40.674Z,6.77
2023-03-28T19:35:09.137Z,8.53
2023-03-28T19:37:36.592Z,11.40
2023-03-28T19:40:08.815Z,8.80
2023-03-28T19:42:37.581Z,7.07
2023-03-28T19:45:06.484Z,7.10
2023-03-28T19:47:35.441Z,13.47
2023-03-28T19:50:04.284Z,8.53
2023-03-28T19:52:31.824Z,6.10
2023-03-28T19:54:59.325Z,5.23
2023-03-28T19:57:26.989Z,5.70
2023-03-28T19:59:54.512Z,7.63
2023-03-28T20:02:22.004Z,6.73
2023-03-28T20:04:50.857Z,8.57
2023-03-28T20:07:19.289Z,14.00
2023-03-28T20:09:48.817Z,16.43
2023-03-28T20:12:16.690Z,11.67
2023-03-28T20:14:44.648Z,10.53
2023-03-28T20:17:12.979Z,8.80
2023-03-28T20:19:40.690Z,8.63
2023-03-28T20:22:09.537Z,6.97
2023-03-28T20:24:37.306Z,7.00
2023-03-28T20:27:04.792Z,5.57
2023-03-28T20:29:32.881Z,6.13
2023-03-28T20:32:00.662Z,8.50
2023-03-28T20:34:28.500Z,11.07
2023-03-28T20:36:56.753Z,11.53
2023-03-28T20:39:28.515Z,12.10
2023-03-28T20:41:55.982Z,10.13
2023-03-28T20:44:23.463Z,9.90
2023-03-28T20:46:50.993Z,9.60
2023-03-28T20:49:21.579Z,10.67
2023-03-28T20:51:50.229Z,15.00
2023-03-28T20:54:17.693Z,23.40
2023-03-28T20:56:46.580Z,23.10
2023-03-28T20:59:14.100Z,24.67
2023-03-28T21:01:42.485Z,33.80
2023-03-28T21:04:10.296Z,40.30
2023-03-28T21:06:38.641Z,41.83
2023-03-28T21:09:08.234Z,39.13
2023-03-28T21:11:37.823Z,42.27
2023-03-28T21:14:08.547Z,43.50
2023-03-28T21:16:37.364Z,36.00
2023-03-28T21:19:05.782Z,30.17
2023-03-28T21:21:34.072Z,25.30
2023-03-28T21:24:02.744Z,29.30
2023-03-28T21:26:31.174Z,20.03
2023-03-28T21:28:59.270Z,21.10
2023-03-28T21:31:29.938Z,11.40
2023-03-28T21:33:59.280Z,12.13
2023-03-28T21:36:28.052Z,15.50
2023-03-28T21:38:55.991Z,7.50
2023-03-28T21:41:23.779Z,7.73
2023-03-28T21:43:53.533Z,6.90
2023-03-28T21:46:21.512Z,6.30
2023-03-28T21:48:50.427Z,6.73
2023-03-28T21:51:18.452Z,7.03
2023-03-28T21:53:46.711Z,8.30
2023-03-28T21:56:16.255Z,7.33
2023-03-28T21:58:43.889Z,8.53
2023-03-28T22:01:14.228Z,7.40
2023-03-28T22:03:42.001Z,8.10
2023-03-28T22:06:11.451Z,7.43
2023-03-28T22:08:39.151Z,7.57
2023-03-28T22:11:13.361Z,7.17
2023-03-28T22:13:40.892Z,7.73
2023-03-28T22:16:12.709Z,6.00
2023-03-28T22:18:41.327Z,5.40
2023-03-28T22:21:13.898Z,4.73
2023-03-28T22:23:43.154Z,4.23
2023-03-28T22:26:12.405Z,3.93
2023-03-28T22:28:39.897Z,5.77
2023-03-28T22:31:08.070Z,4.87
2023-03-28T22:33:35.568Z,4.07
2023-03-28T22:36:03.527Z,5.63
2023-03-28T22:38:32.343Z,6.20
2023-03-28T22:40:59.960Z,5.67
2023-03-28T22:43:28.957Z,6.00
2023-03-28T22:45:56.575Z,6.13
2023-03-28T22:48:24.205Z,5.30
2023-03-28T22:50:51.780Z,4.10
2023-03-28T22:53:23.536Z,3.57
2023-03-28T22:55:52.669Z,3.23
2023-03-28T22:58:21.938Z,3.13
2023-03-28T23:00:50.229Z,4.10
2023-03-28T23:03:17.988Z,3.97
2023-03-28T23:05:45.587Z,4.07
2023-03-28T23:08:13.145Z,4.40
2023-03-28T23:10:41.466Z,4.50
2023-03-28T23:13:10.277Z,4.70
2023-03-28T23:15:37.789Z,5.00
2023-03-28T23:18:06.182Z,5.20
2023-03-28T23:20:33.747Z,5.10
2023-03-28T23:23:01.548Z,5.63
2023-03-28T23:25:29.240Z,5.63
2023-03-28T23:27:56.840Z,5.73
2023-03-28T23:30:25.658Z,5.37
2023-03-28T23:32:53.274Z,4.83
2023-03-28T23:35:20.824Z,3.93
2023-03-28T23:37:48.302Z,3.63
2023-03-28T23:40:15.921Z,4.00
2023-03-28T23:42:45.033Z,4.47
2023-03-28T23:45:14.554Z,3.43
2023-03-28T23:47:43.690Z,3.40
2023-03-28T23:50:12.392Z,3.00
2023-03-28T23:52:40.275Z,2.87
2023-03-28T23:55:08.919Z,2.77
2023-03-28T23:57:36.696Z,2.83
